sensor_id;sensor_type;location;lat;lon;timestamp;P1;durP1;ratioP1;P2;durP2;ratioP2
25123;SDS011;13104;51.030;4.686;2022-12-18T00:01:47;90.97;;;34.85;;
25123;SDS011;13104;51.030;4.686;2022-12-18T00:04:15;95.95;;;35.58;;
25123;SDS011;13104;51.030;4.686;2022-12-18T00:06:43;87.93;;;36.88;;
25123;SDS011;13104;51.030;4.686;2022-12-18T00:09:09;93.93;;;37.05;;
25123;SDS011;13104;51.030;4.686;2022-12-18T00:11:35;99.32;;;38.30;;
25123;SDS011;13104;51.030;4.686;2022-12-18T00:14:02;95.28;;;36.88;;
25123;SDS011;13104;51.030;4.686;2022-12-18T00:16:28;100.65;;;37.97;;
25123;SDS011;13104;51.030;4.686;2022-12-18T00:19:01;97.65;;;36.65;;
25123;SDS011;13104;51.030;4.686;2022-12-18T00:21:27;101.93;;;36.65;;
25123;SDS011;13104;51.030;4.686;2022-12-18T00:23:54;95.85;;;36.92;;
25123;SDS011;13104;51.030;4.686;2022-12-18T00:26:22;92.93;;;35.80;;
25123;SDS011;13104;51.030;4.686;2022-12-18T00:28:48;96.57;;;37.85;;
25123;SDS011;13104;51.030;4.686;2022-12-18T00:31:16;99.65;;;38.05;;
25123;SDS011;13104;51.030;4.686;2022-12-18T00:33:42;91.57;;;36.28;;
25123;SDS011;13104;51.030;4.686;2022-12-18T00:36:13;106.28;;;38.90;;
25123;SDS011;13104;51.030;4.686;2022-12-18T00:38:40;93.20;;;37.45;;
25123;SDS011;13104;51.030;4.686;2022-12-18T00:41:07;95.65;;;35.80;;
25123;SDS011;13104;51.030;4.686;2022-12-18T00:43:33;96.20;;;36.67;;
25123;SDS011;13104;51.030;4.686;2022-12-18T00:45:59;92.75;;;36.63;;
25123;SDS011;13104;51.030;4.686;2022-12-18T00:48:25;94.75;;;36.63;;
25123;SDS011;13104;51.030;4.686;2022-12-18T00:50:51;93.07;;;36.85;;
25123;SDS011;13104;51.030;4.686;2022-12-18T00:53:17;91.55;;;35.92;;
25123;SDS011;13104;51.030;4.686;2022-12-18T00:55:44;101.50;;;37.20;;
25123;SDS011;13104;51.030;4.686;2022-12-18T00:58:12;87.95;;;36.25;;
25123;SDS011;13104;51.030;4.686;2022-12-18T01:00:38;86.65;;;35.42;;
25123;SDS011;13104;51.030;4.686;2022-12-18T01:03:04;90.05;;;34.72;;
25123;SDS011;13104;51.030;4.686;2022-12-18T01:05:31;89.22;;;34.70;;
25123;SDS011;13104;51.030;4.686;2022-12-18T01:07:57;95.45;;;36.72;;
25123;SDS011;13104;51.030;4.686;2022-12-18T01:10:24;90.57;;;36.63;;
25123;SDS011;13104;51.030;4.686;2022-12-18T01:12:50;83.18;;;35.33;;
25123;SDS011;13104;51.030;4.686;2022-12-18T01:15:16;98.05;;;33.42;;
25123;SDS011;13104;51.030;4.686;2022-12-18T01:17:43;89.32;;;35.13;;
25123;SDS011;13104;51.030;4.686;2022-12-18T01:20:10;91.35;;;34.78;;
25123;SDS011;13104;51.030;4.686;2022-12-18T01:22:36;87.70;;;35.70;;
25123;SDS011;13104;51.030;4.686;2022-12-18T01:25:03;88.07;;;33.00;;
25123;SDS011;13104;51.030;4.686;2022-12-18T01:27:29;83.88;;;34.10;;
25123;SDS011;13104;51.030;4.686;2022-12-18T01:29:55;94.90;;;35.08;;
25123;SDS011;13104;51.030;4.686;2022-12-18T01:32:21;85.30;;;33.75;;
25123;SDS011;13104;51.030;4.686;2022-12-18T01:34:47;91.70;;;34.03;;
25123;SDS011;13104;51.030;4.686;2022-12-18T01:37:13;87.75;;;34.53;;
25123;SDS011;13104;51.030;4.686;2022-12-18T01:39:40;88.50;;;34.85;;
25123;SDS011;13104;51.030;4.686;2022-12-18T01:42:13;99.50;;;35.97;;
25123;SDS011;13104;51.030;4.686;2022-12-18T01:47:15;93.32;;;34.70;;
25123;SDS011;13104;51.030;4.686;2022-12-18T01:49:44;93.35;;;35.65;;
25123;SDS011;13104;51.030;4.686;2022-12-18T01:52:10;80.70;;;32.15;;
25123;SDS011;13104;51.030;4.686;2022-12-18T01:54:36;93.43;;;32.08;;
25123;SDS011;13104;51.030;4.686;2022-12-18T01:57:02;87.65;;;31.27;;
25123;SDS011;13104;51.030;4.686;2022-12-18T01:59:28;79.72;;;32.03;;
25123;SDS011;13104;51.030;4.686;2022-12-18T02:01:56;82.85;;;32.40;;
25123;SDS011;13104;51.030;4.686;2022-12-18T02:04:23;82.53;;;30.83;;
25123;SDS011;13104;51.030;4.686;2022-12-18T02:06:51;87.93;;;31.80;;
25123;SDS011;13104;51.030;4.686;2022-12-18T02:09:22;85.10;;;31.15;;
25123;SDS011;13104;51.030;4.686;2022-12-18T02:11:53;82.47;;;31.58;;
25123;SDS011;13104;51.030;4.686;2022-12-18T02:14:44;87.63;;;32.42;;
25123;SDS011;13104;51.030;4.686;2022-12-18T02:17:12;86.03;;;32.05;;
25123;SDS011;13104;51.030;4.686;2022-12-18T02:20:04;85.22;;;30.98;;
25123;SDS011;13104;51.030;4.686;2022-12-18T02:22:32;82.95;;;31.25;;
25123;SDS011;13104;51.030;4.686;2022-12-18T02:27:34;80.88;;;31.38;;
25123;SDS011;13104;51.030;4.686;2022-12-18T02:30:03;71.10;;;27.73;;
25123;SDS011;13104;51.030;4.686;2022-12-18T02:32:43;79.20;;;30.23;;
25123;SDS011;13104;51.030;4.686;2022-12-18T02:35:12;82.80;;;28.63;;
25123;SDS011;13104;51.030;4.686;2022-12-18T02:37:39;69.63;;;28.35;;
25123;SDS011;13104;51.030;4.686;2022-12-18T02:40:06;78.38;;;29.67;;
25123;SDS011;13104;51.030;4.686;2022-12-18T02:42:33;71.68;;;29.00;;
25123;SDS011;13104;51.030;4.686;2022-12-18T02:44:59;66.57;;;27.52;;
25123;SDS011;13104;51.030;4.686;2022-12-18T02:47:28;81.20;;;29.95;;
25123;SDS011;13104;51.030;4.686;2022-12-18T03:02:51;67.78;;;26.50;;
25123;SDS011;13104;51.030;4.686;2022-12-18T03:05:22;72.00;;;27.85;;
25123;SDS011;13104;51.030;4.686;2022-12-18T03:10:35;73.68;;;27.77;;
25123;SDS011;13104;51.030;4.686;2022-12-18T03:13:04;66.65;;;27.27;;
25123;SDS011;13104;51.030;4.686;2022-12-18T03:15:41;72.78;;;26.92;;
25123;SDS011;13104;51.030;4.686;2022-12-18T03:18:13;81.57;;;27.38;;
25123;SDS011;13104;51.030;4.686;2022-12-18T03:20:41;68.35;;;26.08;;
25123;SDS011;13104;51.030;4.686;2022-12-18T03:23:10;71.53;;;28.13;;
25123;SDS011;13104;51.030;4.686;2022-12-18T03:25:39;75.35;;;27.70;;
25123;SDS011;13104;51.030;4.686;2022-12-18T03:28:06;74.70;;;27.60;;
25123;SDS011;13104;51.030;4.686;2022-12-18T03:30:34;75.68;;;28.58;;
25123;SDS011;13104;51.030;4.686;2022-12-18T03:33:16;72.20;;;28.42;;
25123;SDS011;13104;51.030;4.686;2022-12-18T03:35:44;68.03;;;25.77;;
25123;SDS011;13104;51.030;4.686;2022-12-18T03:38:11;69.07;;;26.50;;
25123;SDS011;13104;51.030;4.686;2022-12-18T03:43:11;66.40;;;25.63;;
25123;SDS011;13104;51.030;4.686;2022-12-18T03:45:42;74.05;;;28.05;;
25123;SDS011;13104;51.030;4.686;2022-12-18T03:48:11;64.55;;;26.23;;
25123;SDS011;13104;51.030;4.686;2022-12-18T03:50:43;66.10;;;25.30;;
25123;SDS011;13104;51.030;4.686;2022-12-18T03:56:04;66.88;;;25.60;;
25123;SDS011;13104;51.030;4.686;2022-12-18T03:58:31;68.97;;;26.40;;
25123;SDS011;13104;51.030;4.686;2022-12-18T04:00:58;71.97;;;27.60;;
25123;SDS011;13104;51.030;4.686;2022-12-18T04:03:26;65.75;;;25.23;;
25123;SDS011;13104;51.030;4.686;2022-12-18T04:05:54;67.15;;;24.90;;
25123;SDS011;13104;51.030;4.686;2022-12-18T04:08:21;62.78;;;24.27;;
25123;SDS011;13104;51.030;4.686;2022-12-18T04:10:47;71.25;;;27.65;;
25123;SDS011;13104;51.030;4.686;2022-12-18T04:13:21;61.65;;;24.58;;
25123;SDS011;13104;51.030;4.686;2022-12-18T04:15:47;44.72;;;17.17;;
25123;SDS011;13104;51.030;4.686;2022-12-18T04:18:14;64.30;;;25.35;;
25123;SDS011;13104;51.030;4.686;2022-12-18T04:20:40;59.58;;;23.17;;
25123;SDS011;13104;51.030;4.686;2022-12-18T04:23:06;59.83;;;23.15;;
25123;SDS011;13104;51.030;4.686;2022-12-18T04:25:32;65.65;;;26.05;;
25123;SDS011;13104;51.030;4.686;2022-12-18T04:27:58;58.55;;;24.40;;
25123;SDS011;13104;51.030;4.686;2022-12-18T04:30:24;60.42;;;23.63;;
25123;SDS011;13104;51.030;4.686;2022-12-18T04:32:50;60.08;;;23.67;;
25123;SDS011;13104;51.030;4.686;2022-12-18T04:35:17;56.28;;;23.08;;
25123;SDS011;13104;51.030;4.686;2022-12-18T04:37:43;65.47;;;24.23;;
25123;SDS011;13104;51.030;4.686;2022-12-18T04:40:10;63.88;;;22.08;;
25123;SDS011;13104;51.030;4.686;2022-12-18T04:42:36;50.60;;;23.08;;
25123;SDS011;13104;51.030;4.686;2022-12-18T04:45:02;61.05;;;22.88;;
25123;SDS011;13104;51.030;4.686;2022-12-18T04:47:28;66.07;;;23.08;;
25123;SDS011;13104;51.030;4.686;2022-12-18T04:49:54;58.17;;;23.50;;
25123;SDS011;13104;51.030;4.686;2022-12-18T04:52:20;59.38;;;22.42;;
25123;SDS011;13104;51.030;4.686;2022-12-18T04:54:47;55.33;;;21.35;;
25123;SDS011;13104;51.030;4.686;2022-12-18T04:57:13;55.15;;;23.63;;
25123;SDS011;13104;51.030;4.686;2022-12-18T04:59:40;56.40;;;23.00;;
25123;SDS011;13104;51.030;4.686;2022-12-18T05:02:06;58.60;;;22.60;;
25123;SDS011;13104;51.030;4.686;2022-12-18T05:04:32;49.53;;;21.90;;
25123;SDS011;13104;51.030;4.686;2022-12-18T05:06:58;53.88;;;21.40;;
25123;SDS011;13104;51.030;4.686;2022-12-18T05:09:24;58.42;;;22.52;;
25123;SDS011;13104;51.030;4.686;2022-12-18T05:11:50;53.72;;;22.77;;
25123;SDS011;13104;51.030;4.686;2022-12-18T05:14:16;52.65;;;20.80;;
25123;SDS011;13104;51.030;4.686;2022-12-18T05:16:42;59.17;;;21.30;;
25123;SDS011;13104;51.030;4.686;2022-12-18T05:19:08;49.88;;;21.17;;
25123;SDS011;13104;51.030;4.686;2022-12-18T05:21:35;54.63;;;21.25;;
25123;SDS011;13104;51.030;4.686;2022-12-18T05:24:01;66.82;;;22.58;;
25123;SDS011;13104;51.030;4.686;2022-12-18T05:26:27;56.85;;;21.73;;
25123;SDS011;13104;51.030;4.686;2022-12-18T05:28:53;59.65;;;21.88;;
25123;SDS011;13104;51.030;4.686;2022-12-18T05:31:19;53.85;;;22.08;;
25123;SDS011;13104;51.030;4.686;2022-12-18T05:33:45;53.50;;;21.08;;
25123;SDS011;13104;51.030;4.686;2022-12-18T05:36:11;49.22;;;20.60;;
25123;SDS011;13104;51.030;4.686;2022-12-18T05:38:38;48.47;;;19.55;;
25123;SDS011;13104;51.030;4.686;2022-12-18T05:41:05;50.08;;;20.13;;
25123;SDS011;13104;51.030;4.686;2022-12-18T05:43:33;53.72;;;21.35;;
25123;SDS011;13104;51.030;4.686;2022-12-18T05:46:03;51.40;;;21.15;;
25123;SDS011;13104;51.030;4.686;2022-12-18T05:48:29;50.60;;;20.40;;
25123;SDS011;13104;51.030;4.686;2022-12-18T05:50:55;48.00;;;21.05;;
25123;SDS011;13104;51.030;4.686;2022-12-18T05:53:21;49.70;;;20.55;;
25123;SDS011;13104;51.030;4.686;2022-12-18T05:55:48;51.63;;;20.35;;
25123;SDS011;13104;51.030;4.686;2022-12-18T05:58:14;46.53;;;19.42;;
25123;SDS011;13104;51.030;4.686;2022-12-18T06:00:41;53.78;;;20.20;;
25123;SDS011;13104;51.030;4.686;2022-12-18T06:03:08;45.30;;;18.60;;
25123;SDS011;13104;51.030;4.686;2022-12-18T06:05:39;46.90;;;19.35;;
25123;SDS011;13104;51.030;4.686;2022-12-18T06:08:06;46.90;;;18.98;;
25123;SDS011;13104;51.030;4.686;2022-12-18T06:10:32;44.58;;;18.92;;
25123;SDS011;13104;51.030;4.686;2022-12-18T06:12:58;55.65;;;19.95;;
25123;SDS011;13104;51.030;4.686;2022-12-18T06:15:24;45.67;;;18.88;;
25123;SDS011;13104;51.030;4.686;2022-12-18T06:17:51;49.08;;;19.90;;
25123;SDS011;13104;51.030;4.686;2022-12-18T06:20:18;46.28;;;19.35;;
25123;SDS011;13104;51.030;4.686;2022-12-18T06:22:44;46.53;;;18.77;;
25123;SDS011;13104;51.030;4.686;2022-12-18T06:25:10;43.25;;;19.15;;
25123;SDS011;13104;51.030;4.686;2022-12-18T06:27:36;46.80;;;19.52;;
25123;SDS011;13104;51.030;4.686;2022-12-18T06:30:02;40.50;;;17.63;;
25123;SDS011;13104;51.030;4.686;2022-12-18T06:32:29;45.08;;;19.20;;
25123;SDS011;13104;51.030;4.686;2022-12-18T06:34:55;44.60;;;19.27;;
25123;SDS011;13104;51.030;4.686;2022-12-18T06:37:21;41.80;;;18.17;;
25123;SDS011;13104;51.030;4.686;2022-12-18T06:39:51;36.97;;;17.05;;
25123;SDS011;13104;51.030;4.686;2022-12-18T06:42:17;42.65;;;18.02;;
25123;SDS011;13104;51.030;4.686;2022-12-18T06:44:43;47.08;;;18.88;;
25123;SDS011;13104;51.030;4.686;2022-12-18T06:47:10;46.08;;;17.92;;
25123;SDS011;13104;51.030;4.686;2022-12-18T06:49:36;47.55;;;18.08;;
25123;SDS011;13104;51.030;4.686;2022-12-18T06:52:02;41.22;;;19.23;;
25123;SDS011;13104;51.030;4.686;2022-12-18T06:54:28;45.55;;;19.27;;
25123;SDS011;13104;51.030;4.686;2022-12-18T06:56:56;46.45;;;18.90;;
25123;SDS011;13104;51.030;4.686;2022-12-18T06:59:22;41.60;;;18.27;;
25123;SDS011;13104;51.030;4.686;2022-12-18T07:01:48;42.72;;;16.77;;
25123;SDS011;13104;51.030;4.686;2022-12-18T07:04:14;37.65;;;16.70;;
25123;SDS011;13104;51.030;4.686;2022-12-18T07:06:40;39.95;;;17.17;;
25123;SDS011;13104;51.030;4.686;2022-12-18T07:09:07;46.58;;;17.50;;
25123;SDS011;13104;51.030;4.686;2022-12-18T07:11:33;37.83;;;16.77;;
25123;SDS011;13104;51.030;4.686;2022-12-18T07:13:59;42.63;;;17.10;;
25123;SDS011;13104;51.030;4.686;2022-12-18T07:16:25;41.30;;;16.92;;
25123;SDS011;13104;51.030;4.686;2022-12-18T07:18:56;45.42;;;17.85;;
25123;SDS011;13104;51.030;4.686;2022-12-18T07:21:23;45.13;;;17.00;;
25123;SDS011;13104;51.030;4.686;2022-12-18T07:23:50;52.10;;;19.40;;
25123;SDS011;13104;51.030;4.686;2022-12-18T07:26:17;50.40;;;18.20;;
25123;SDS011;13104;51.030;4.686;2022-12-18T07:28:43;41.42;;;17.88;;
25123;SDS011;13104;51.030;4.686;2022-12-18T07:31:14;41.83;;;17.63;;
25123;SDS011;13104;51.030;4.686;2022-12-18T07:33:40;44.93;;;18.20;;
25123;SDS011;13104;51.030;4.686;2022-12-18T07:36:07;45.03;;;17.15;;
25123;SDS011;13104;51.030;4.686;2022-12-18T07:38:34;44.45;;;17.48;;
25123;SDS011;13104;51.030;4.686;2022-12-18T07:41:02;41.85;;;18.42;;
25123;SDS011;13104;51.030;4.686;2022-12-18T07:43:28;36.30;;;17.20;;
25123;SDS011;13104;51.030;4.686;2022-12-18T07:45:54;39.58;;;17.52;;
25123;SDS011;13104;51.030;4.686;2022-12-18T07:48:20;45.00;;;19.83;;
25123;SDS011;13104;51.030;4.686;2022-12-18T07:50:46;44.85;;;18.83;;
25123;SDS011;13104;51.030;4.686;2022-12-18T07:53:12;46.57;;;19.20;;
25123;SDS011;13104;51.030;4.686;2022-12-18T07:55:39;48.57;;;19.17;;
25123;SDS011;13104;51.030;4.686;2022-12-18T07:58:06;46.05;;;17.67;;
25123;SDS011;13104;51.030;4.686;2022-12-18T08:00:32;47.37;;;19.80;;
25123;SDS011;13104;51.030;4.686;2022-12-18T08:02:58;39.42;;;18.15;;
25123;SDS011;13104;51.030;4.686;2022-12-18T08:05:24;42.37;;;18.97;;
25123;SDS011;13104;51.030;4.686;2022-12-18T08:07:50;39.80;;;18.07;;
25123;SDS011;13104;51.030;4.686;2022-12-18T08:10:17;39.00;;;17.20;;
25123;SDS011;13104;51.030;4.686;2022-12-18T08:12:43;42.10;;;17.27;;
25123;SDS011;13104;51.030;4.686;2022-12-18T08:15:09;39.23;;;16.70;;
25123;SDS011;13104;51.030;4.686;2022-12-18T08:17:36;45.40;;;18.70;;
25123;SDS011;13104;51.030;4.686;2022-12-18T08:20:02;38.60;;;17.60;;
25123;SDS011;13104;51.030;4.686;2022-12-18T08:22:29;39.70;;;16.63;;
25123;SDS011;13104;51.030;4.686;2022-12-18T08:24:55;35.67;;;16.70;;
25123;SDS011;13104;51.030;4.686;2022-12-18T08:27:21;41.47;;;17.23;;
25123;SDS011;13104;51.030;4.686;2022-12-18T08:29:47;38.57;;;16.47;;
25123;SDS011;13104;51.030;4.686;2022-12-18T08:32:13;36.40;;;16.27;;
25123;SDS011;13104;51.030;4.686;2022-12-18T08:34:39;39.73;;;16.70;;
25123;SDS011;13104;51.030;4.686;2022-12-18T08:37:05;36.40;;;16.57;;
25123;SDS011;13104;51.030;4.686;2022-12-18T08:39:32;37.37;;;16.33;;
25123;SDS011;13104;51.030;4.686;2022-12-18T08:41:59;36.57;;;17.13;;
25123;SDS011;13104;51.030;4.686;2022-12-18T08:45:04;29.58;;;12.05;;
25123;SDS011;13104;51.030;4.686;2022-12-18T08:47:30;35.60;;;16.65;;
25123;SDS011;13104;51.030;4.686;2022-12-18T08:49:56;38.27;;;17.03;;
25123;SDS011;13104;51.030;4.686;2022-12-18T08:52:22;37.07;;;16.00;;
25123;SDS011;13104;51.030;4.686;2022-12-18T08:54:48;37.03;;;16.07;;
25123;SDS011;13104;51.030;4.686;2022-12-18T08:57:14;37.03;;;16.15;;
25123;SDS011;13104;51.030;4.686;2022-12-18T08:59:41;41.60;;;17.73;;
25123;SDS011;13104;51.030;4.686;2022-12-18T09:02:09;38.70;;;18.30;;
25123;SDS011;13104;51.030;4.686;2022-12-18T09:04:35;35.67;;;16.65;;
25123;SDS011;13104;51.030;4.686;2022-12-18T09:07:01;42.55;;;17.63;;
25123;SDS011;13104;51.030;4.686;2022-12-18T09:09:27;40.83;;;17.38;;
25123;SDS011;13104;51.030;4.686;2022-12-18T09:11:54;40.83;;;16.98;;
25123;SDS011;13104;51.030;4.686;2022-12-18T09:14:20;38.83;;;16.83;;
25123;SDS011;13104;51.030;4.686;2022-12-18T09:16:46;33.95;;;16.50;;
25123;SDS011;13104;51.030;4.686;2022-12-18T09:19:12;39.20;;;16.95;;
25123;SDS011;13104;51.030;4.686;2022-12-18T09:21:38;40.90;;;16.20;;
25123;SDS011;13104;51.030;4.686;2022-12-18T09:24:05;34.10;;;15.32;;
25123;SDS011;13104;51.030;4.686;2022-12-18T09:26:31;33.22;;;15.40;;
25123;SDS011;13104;51.030;4.686;2022-12-18T09:28:57;33.10;;;15.88;;
25123;SDS011;13104;51.030;4.686;2022-12-18T09:31:23;35.05;;;15.23;;
25123;SDS011;13104;51.030;4.686;2022-12-18T09:33:50;35.53;;;15.93;;
25123;SDS011;13104;51.030;4.686;2022-12-18T09:36:16;34.05;;;16.70;;
25123;SDS011;13104;51.030;4.686;2022-12-18T09:38:43;36.63;;;15.90;;
25123;SDS011;13104;51.030;4.686;2022-12-18T09:43:49;33.40;;;14.10;;
25123;SDS011;13104;51.030;4.686;2022-12-18T09:46:36;33.08;;;15.30;;
25123;SDS011;13104;51.030;4.686;2022-12-18T09:49:05;31.70;;;14.73;;
25123;SDS011;13104;51.030;4.686;2022-12-18T09:51:35;29.27;;;14.75;;
25123;SDS011;13104;51.030;4.686;2022-12-18T09:54:03;35.90;;;16.05;;
25123;SDS011;13104;51.030;4.686;2022-12-18T09:56:32;32.90;;;15.52;;
25123;SDS011;13104;51.030;4.686;2022-12-18T09:59:01;37.72;;;15.63;;
25123;SDS011;13104;51.030;4.686;2022-12-18T10:01:28;37.40;;;15.68;;
25123;SDS011;13104;51.030;4.686;2022-12-18T10:03:55;32.53;;;16.58;;
25123;SDS011;13104;51.030;4.686;2022-12-18T10:16:34;30.30;;;15.60;;
25123;SDS011;13104;51.030;4.686;2022-12-18T10:19:20;31.10;;;15.27;;
25123;SDS011;13104;51.030;4.686;2022-12-18T10:21:51;32.90;;;15.07;;
25123;SDS011;13104;51.030;4.686;2022-12-18T10:24:32;37.22;;;15.55;;
25123;SDS011;13104;51.030;4.686;2022-12-18T10:27:11;38.10;;;17.88;;
25123;SDS011;13104;51.030;4.686;2022-12-18T10:29:38;31.90;;;16.95;;
25123;SDS011;13104;51.030;4.686;2022-12-18T10:32:05;40.42;;;17.33;;
25123;SDS011;13104;51.030;4.686;2022-12-18T10:34:31;36.42;;;17.30;;
25123;SDS011;13104;51.030;4.686;2022-12-18T10:36:57;31.95;;;15.55;;
25123;SDS011;13104;51.030;4.686;2022-12-18T10:39:25;31.95;;;16.05;;
25123;SDS011;13104;51.030;4.686;2022-12-18T10:41:52;33.17;;;16.00;;
25123;SDS011;13104;51.030;4.686;2022-12-18T10:44:30;34.08;;;15.23;;
25123;SDS011;13104;51.030;4.686;2022-12-18T10:47:02;31.67;;;16.10;;
25123;SDS011;13104;51.030;4.686;2022-12-18T10:49:30;31.83;;;15.50;;
25123;SDS011;13104;51.030;4.686;2022-12-18T10:54:49;35.92;;;16.67;;
25123;SDS011;13104;51.030;4.686;2022-12-18T10:57:17;32.45;;;15.98;;
25123;SDS011;13104;51.030;4.686;2022-12-18T10:59:53;35.03;;;16.52;;
25123;SDS011;13104;51.030;4.686;2022-12-18T11:02:36;37.75;;;16.60;;
25123;SDS011;13104;51.030;4.686;2022-12-18T11:05:03;30.95;;;15.07;;
25123;SDS011;13104;51.030;4.686;2022-12-18T11:07:48;33.33;;;14.75;;
25123;SDS011;13104;51.030;4.686;2022-12-18T11:10:18;32.72;;;15.43;;
25123;SDS011;13104;51.030;4.686;2022-12-18T11:12:45;31.65;;;15.10;;
25123;SDS011;13104;51.030;4.686;2022-12-18T11:15:15;30.80;;;15.07;;
25123;SDS011;13104;51.030;4.686;2022-12-18T11:17:42;29.80;;;14.88;;
25123;SDS011;13104;51.030;4.686;2022-12-18T11:22:57;28.42;;;15.18;;
25123;SDS011;13104;51.030;4.686;2022-12-18T11:25:24;29.75;;;13.98;;
25123;SDS011;13104;51.030;4.686;2022-12-18T11:27:51;28.55;;;14.20;;
25123;SDS011;13104;51.030;4.686;2022-12-18T11:30:21;29.00;;;14.63;;
25123;SDS011;13104;51.030;4.686;2022-12-18T11:32:59;29.70;;;14.68;;
25123;SDS011;13104;51.030;4.686;2022-12-18T11:35:35;28.40;;;15.30;;
25123;SDS011;13104;51.030;4.686;2022-12-18T11:38:05;26.52;;;14.57;;
25123;SDS011;13104;51.030;4.686;2022-12-18T11:40:36;29.80;;;14.90;;
25123;SDS011;13104;51.030;4.686;2022-12-18T11:43:06;31.92;;;14.70;;
25123;SDS011;13104;51.030;4.686;2022-12-18T11:45:34;27.63;;;14.75;;
25123;SDS011;13104;51.030;4.686;2022-12-18T11:50:54;28.98;;;15.32;;
25123;SDS011;13104;51.030;4.686;2022-12-18T11:53:21;33.28;;;15.27;;
25123;SDS011;13104;51.030;4.686;2022-12-18T12:01:31;33.72;;;15.30;;
25123;SDS011;13104;51.030;4.686;2022-12-18T12:06:40;34.17;;;17.80;;
25123;SDS011;13104;51.030;4.686;2022-12-18T12:09:21;43.15;;;21.10;;
25123;SDS011;13104;51.030;4.686;2022-12-18T12:17:03;37.00;;;21.58;;
25123;SDS011;13104;51.030;4.686;2022-12-18T12:19:49;34.30;;;18.20;;
25123;SDS011;13104;51.030;4.686;2022-12-18T12:22:34;34.70;;;18.23;;
25123;SDS011;13104;51.030;4.686;2022-12-18T12:38:25;33.33;;;17.08;;
25123;SDS011;13104;51.030;4.686;2022-12-18T12:40:54;32.75;;;17.73;;
25123;SDS011;13104;51.030;4.686;2022-12-18T12:46:20;39.20;;;18.42;;
25123;SDS011;13104;51.030;4.686;2022-12-18T12:48:48;30.58;;;16.17;;
25123;SDS011;13104;51.030;4.686;2022-12-18T12:51:28;33.30;;;17.02;;
25123;SDS011;13104;51.030;4.686;2022-12-18T12:53:54;32.97;;;17.85;;
25123;SDS011;13104;51.030;4.686;2022-12-18T12:56:22;32.78;;;18.00;;
25123;SDS011;13104;51.030;4.686;2022-12-18T12:59:08;32.50;;;17.38;;
25123;SDS011;13104;51.030;4.686;2022-12-18T13:01:40;34.90;;;18.08;;
25123;SDS011;13104;51.030;4.686;2022-12-18T13:09:21;38.92;;;18.45;;
25123;SDS011;13104;51.030;4.686;2022-12-18T13:11:48;38.70;;;19.50;;
25123;SDS011;13104;51.030;4.686;2022-12-18T13:14:37;34.63;;;19.40;;
25123;SDS011;13104;51.030;4.686;2022-12-18T13:19:48;33.13;;;18.48;;
25123;SDS011;13104;51.030;4.686;2022-12-18T13:22:21;32.47;;;17.27;;
25123;SDS011;13104;51.030;4.686;2022-12-18T13:24:47;38.47;;;18.70;;
25123;SDS011;13104;51.030;4.686;2022-12-18T13:29:58;33.70;;;18.80;;
25123;SDS011;13104;51.030;4.686;2022-12-18T13:32:25;40.90;;;19.63;;
25123;SDS011;13104;51.030;4.686;2022-12-18T13:37:40;41.00;;;21.40;;
25123;SDS011;13104;51.030;4.686;2022-12-18T13:45:41;45.33;;;22.67;;
25123;SDS011;13104;51.030;4.686;2022-12-18T13:48:15;50.15;;;24.67;;
25123;SDS011;13104;51.030;4.686;2022-12-18T13:50:42;54.15;;;25.95;;
25123;SDS011;13104;51.030;4.686;2022-12-18T13:53:15;57.80;;;27.38;;
25123;SDS011;13104;51.030;4.686;2022-12-18T13:55:46;52.13;;;25.73;;
25123;SDS011;13104;51.030;4.686;2022-12-18T13:58:12;48.17;;;25.63;;
25123;SDS011;13104;51.030;4.686;2022-12-18T14:00:41;47.95;;;24.55;;
25123;SDS011;13104;51.030;4.686;2022-12-18T14:03:24;50.65;;;26.98;;
25123;SDS011;13104;51.030;4.686;2022-12-18T14:06:12;42.53;;;22.35;;
25123;SDS011;13104;51.030;4.686;2022-12-18T14:08:41;46.08;;;22.42;;
25123;SDS011;13104;51.030;4.686;2022-12-18T14:16:11;42.00;;;21.42;;
25123;SDS011;13104;51.030;4.686;2022-12-18T14:18:42;39.72;;;20.25;;
25123;SDS011;13104;51.030;4.686;2022-12-18T14:21:16;38.60;;;20.50;;
25123;SDS011;13104;51.030;4.686;2022-12-18T14:23:43;39.83;;;20.52;;
25123;SDS011;13104;51.030;4.686;2022-12-18T14:26:27;39.28;;;20.38;;
25123;SDS011;13104;51.030;4.686;2022-12-18T14:29:10;40.08;;;20.88;;
25123;SDS011;13104;51.030;4.686;2022-12-18T14:31:43;49.17;;;23.23;;
25123;SDS011;13104;51.030;4.686;2022-12-18T14:34:18;54.47;;;27.17;;
25123;SDS011;13104;51.030;4.686;2022-12-18T14:36:53;49.75;;;27.50;;
25123;SDS011;13104;51.030;4.686;2022-12-18T14:39:21;56.80;;;29.52;;
25123;SDS011;13104;51.030;4.686;2022-12-18T14:41:48;61.33;;;32.00;;
25123;SDS011;13104;51.030;4.686;2022-12-18T14:44:14;46.67;;;26.73;;
25123;SDS011;13104;51.030;4.686;2022-12-18T14:46:47;54.05;;;30.08;;
25123;SDS011;13104;51.030;4.686;2022-12-18T14:49:30;55.58;;;29.00;;
25123;SDS011;13104;51.030;4.686;2022-12-18T14:51:57;46.58;;;26.67;;
25123;SDS011;13104;51.030;4.686;2022-12-18T14:54:24;54.90;;;29.77;;
25123;SDS011;13104;51.030;4.686;2022-12-18T14:56:54;50.75;;;29.38;;
25123;SDS011;13104;51.030;4.686;2022-12-18T14:59:24;66.28;;;34.80;;
25123;SDS011;13104;51.030;4.686;2022-12-18T15:04:24;65.20;;;33.40;;
25123;SDS011;13104;51.030;4.686;2022-12-18T15:07:02;66.93;;;36.05;;
25123;SDS011;13104;51.030;4.686;2022-12-18T15:09:28;61.63;;;32.22;;
25123;SDS011;13104;51.030;4.686;2022-12-18T15:11:55;51.92;;;29.13;;
25123;SDS011;13104;51.030;4.686;2022-12-18T15:14:33;46.22;;;25.80;;
25123;SDS011;13104;51.030;4.686;2022-12-18T15:17:03;57.05;;;28.77;;
25123;SDS011;13104;51.030;4.686;2022-12-18T15:19:40;62.83;;;35.83;;
25123;SDS011;13104;51.030;4.686;2022-12-18T15:24:48;57.70;;;28.50;;
25123;SDS011;13104;51.030;4.686;2022-12-18T15:27:28;58.28;;;30.15;;
25123;SDS011;13104;51.030;4.686;2022-12-18T15:32:33;53.25;;;27.20;;
25123;SDS011;13104;51.030;4.686;2022-12-18T15:37:33;54.38;;;26.67;;
25123;SDS011;13104;51.030;4.686;2022-12-18T15:39:59;59.08;;;26.83;;
25123;SDS011;13104;51.030;4.686;2022-12-18T15:42:27;58.55;;;27.33;;
25123;SDS011;13104;51.030;4.686;2022-12-18T15:45:12;55.28;;;28.65;;
25123;SDS011;13104;51.030;4.686;2022-12-18T15:47:38;50.55;;;26.35;;
25123;SDS011;13104;51.030;4.686;2022-12-18T15:50:04;46.05;;;24.95;;
25123;SDS011;13104;51.030;4.686;2022-12-18T15:52:39;52.03;;;27.85;;
25123;SDS011;13104;51.030;4.686;2022-12-18T15:55:16;52.63;;;28.15;;
25123;SDS011;13104;51.030;4.686;2022-12-18T15:58:01;52.08;;;26.33;;
25123;SDS011;13104;51.030;4.686;2022-12-18T16:00:27;57.63;;;28.92;;
25123;SDS011;13104;51.030;4.686;2022-12-18T16:02:53;52.65;;;25.55;;
25123;SDS011;13104;51.030;4.686;2022-12-18T16:05:20;47.67;;;23.70;;
25123;SDS011;13104;51.030;4.686;2022-12-18T16:07:47;48.92;;;25.40;;
25123;SDS011;13104;51.030;4.686;2022-12-18T16:10:13;44.20;;;22.45;;
25123;SDS011;13104;51.030;4.686;2022-12-18T16:12:39;48.20;;;23.30;;
25123;SDS011;13104;51.030;4.686;2022-12-18T16:15:06;46.28;;;23.23;;
25123;SDS011;13104;51.030;4.686;2022-12-18T16:17:32;54.92;;;24.65;;
25123;SDS011;13104;51.030;4.686;2022-12-18T16:19:59;48.42;;;24.08;;
25123;SDS011;13104;51.030;4.686;2022-12-18T16:22:26;48.72;;;23.08;;